createdAt,value
2022-11-08T00:00:07.507Z,12.50
2022-11-08T00:02:44.938Z,12.50
2022-11-08T00:05:30.752Z,12.50
2022-11-08T00:08:16.533Z,12.50
2022-11-08T00:11:02.430Z,12.50
2022-11-08T00:13:47.992Z,12.50
2022-11-08T00:16:14.960Z,12.50
2022-11-08T00:18:41.962Z,12.50
2022-11-08T00:21:09.018Z,12.50
2022-11-08T00:23:36.091Z,12.50
2022-11-08T00:26:03.123Z,12.50
2022-11-08T00:28:30.263Z,12.50
2022-11-08T00:30:56.944Z,12.50
2022-11-08T00:33:23.840Z,12.50
2022-11-08T00:35:50.910Z,12.50
2022-11-08T00:38:18.283Z,12.60
2022-11-08T00:40:45.401Z,12.60
2022-11-08T00:43:12.468Z,12.70
2022-11-08T00:45:39.566Z,12.70
2022-11-08T00:48:06.648Z,12.60
2022-11-08T00:50:33.782Z,12.60
2022-11-08T00:53:00.656Z,12.60
2022-11-08T00:55:27.685Z,12.50
2022-11-08T00:57:59.721Z,12.40
2022-11-08T01:00:27.840Z,12.60
2022-11-08T01:03:14.659Z,12.50
2022-11-08T01:05:41.912Z,12.50
2022-11-08T01:08:10.079Z,12.40
2022-11-08T01:10:37.280Z,12.40
2022-11-08T01:13:04.189Z,12.50
2022-11-08T01:15:36.056Z,12.40
2022-11-08T01:18:04.408Z,12.40
2022-11-08T01:20:31.357Z,12.40
2022-11-08T01:22:58.404Z,12.40
2022-11-08T01:25:25.715Z,12.20
2022-11-08T01:27:52.480Z,12.20
2022-11-08T01:30:19.125Z,12.30
2022-11-08T01:32:46.197Z,12.30
2022-11-08T01:35:13.212Z,12.40
2022-11-08T01:37:39.839Z,12.40
2022-11-08T01:40:07.548Z,12.30
2022-11-08T01:42:34.339Z,12.20
2022-11-08T01:45:03.858Z,12.30
2022-11-08T01:47:30.948Z,12.20
2022-11-08T01:50:10.314Z,12.10
2022-11-08T01:52:39.847Z,12.10
2022-11-08T01:55:09.801Z,12.10
2022-11-08T01:57:46.801Z,12.00
2022-11-08T02:00:13.991Z,12.10
2022-11-08T02:02:44.006Z,12.10
2022-11-08T02:05:26.460Z,12.10
2022-11-08T02:08:22.565Z,12.10
2022-11-08T02:10:51.996Z,12.20
2022-11-08T02:13:26.069Z,12.20
2022-11-08T02:15:53.559Z,12.30
2022-11-08T02:18:22.684Z,12.30
2022-11-08T02:21:16.708Z,12.30
2022-11-08T02:23:46.712Z,12.30
2022-11-08T02:26:15.981Z,12.30
2022-11-08T02:28:45.436Z,12.20
2022-11-08T02:31:13.949Z,12.20
2022-11-08T02:33:41.499Z,12.20
2022-11-08T02:36:11.387Z,12.20
2022-11-08T02:38:42.138Z,12.10
2022-11-08T02:41:09.188Z,12.10
2022-11-08T02:43:36.247Z,12.00
2022-11-08T02:46:03.308Z,12.00
2022-11-08T02:48:30.436Z,11.80
2022-11-08T02:50:57.432Z,11.80
2022-11-08T02:53:24.426Z,11.70
2022-11-08T02:55:51.514Z,11.70
2022-11-08T02:58:18.841Z,11.80
2022-11-08T03:00:45.691Z,11.70
2022-11-08T03:03:12.770Z,11.70
2022-11-08T03:05:39.787Z,11.70
2022-11-08T03:08:06.708Z,11.70
2022-11-08T03:10:33.366Z,11.70
2022-11-08T03:13:03.308Z,11.60
2022-11-08T03:15:30.945Z,11.60
2022-11-08T03:17:58.732Z,11.70
2022-11-08T03:20:32.112Z,11.80
2022-11-08T03:23:01.584Z,11.80
2022-11-08T03:25:28.663Z,11.80
2022-11-08T03:27:56.214Z,11.70
2022-11-08T03:30:22.852Z,11.60
2022-11-08T03:32:50.177Z,11.60
2022-11-08T03:35:17.316Z,11.70
2022-11-08T03:37:54.674Z,11.70
2022-11-08T03:40:22.645Z,11.60
2022-11-08T03:42:49.891Z,11.70
2022-11-08T03:45:16.948Z,11.70
2022-11-08T03:47:45.936Z,11.70
2022-11-08T03:50:14.631Z,11.70
2022-11-08T03:52:51.855Z,11.60
2022-11-08T03:55:20.219Z,11.60
2022-11-08T03:57:48.668Z,11.60
2022-11-08T04:00:17.750Z,11.60
2022-11-08T04:02:45.052Z,11.60
2022-11-08T04:05:13.408Z,11.60
2022-11-08T04:07:40.510Z,11.70
2022-11-08T04:10:09.008Z,11.80
2022-11-08T04:12:58.624Z,11.70
2022-11-08T04:15:26.204Z,11.80
2022-11-08T04:18:13.083Z,11.80
2022-11-08T04:21:00.308Z,11.70
2022-11-08T04:23:29.900Z,11.70
2022-11-08T04:26:01.630Z,11.80
2022-11-08T04:28:31.618Z,11.90
2022-11-08T04:31:01.096Z,11.80
2022-11-08T04:33:27.991Z,11.90
2022-11-08T04:35:54.849Z,11.90
2022-11-08T04:38:22.129Z,11.80
2022-11-08T04:40:49.150Z,11.80
2022-11-08T04:43:16.355Z,11.80
2022-11-08T04:45:43.293Z,11.90
2022-11-08T04:48:10.480Z,11.90
2022-11-08T04:50:37.498Z,11.80
2022-11-08T04:53:04.429Z,11.80
2022-11-08T04:55:31.515Z,11.80
2022-11-08T04:57:59.051Z,11.90
2022-11-08T05:00:26.419Z,11.90
2022-11-08T05:02:53.604Z,11.80
2022-11-08T05:05:20.741Z,11.80
2022-11-08T05:07:47.611Z,11.80
2022-11-08T05:10:14.672Z,11.80
2022-11-08T05:12:41.689Z,11.70
2022-11-08T05:15:08.986Z,11.70
2022-11-08T05:17:35.957Z,11.70
2022-11-08T05:20:22.775Z,11.60
2022-11-08T05:23:08.064Z,11.70
2022-11-08T05:25:39.228Z,11.70
2022-11-08T05:28:06.230Z,11.80
2022-11-08T05:30:32.971Z,11.80
2022-11-08T05:32:59.769Z,11.90
2022-11-08T05:35:26.876Z,11.80
2022-11-08T05:37:53.873Z,11.80
2022-11-08T05:40:20.975Z,11.80
2022-11-08T05:42:47.984Z,11.80
2022-11-08T05:45:15.019Z,11.80
2022-11-08T05:47:46.600Z,11.70
2022-11-08T05:50:19.242Z,11.80
2022-11-08T05:52:46.508Z,11.80
2022-11-08T05:55:13.467Z,11.80
2022-11-08T05:57:46.335Z,11.80
2022-11-08T06:00:13.580Z,11.80
2022-11-08T06:02:40.687Z,11.80
2022-11-08T06:05:08.814Z,11.80
2022-11-08T06:07:36.976Z,11.80
2022-11-08T06:10:06.015Z,11.90
2022-11-08T06:12:33.105Z,11.90
2022-11-08T06:15:00.086Z,11.80
2022-11-08T06:17:30.194Z,11.80
2022-11-08T06:19:58.273Z,11.80
2022-11-08T06:22:25.305Z,11.70
2022-11-08T06:24:51.974Z,11.80
2022-11-08T06:27:19.106Z,11.80
2022-11-08T06:29:45.785Z,11.80
2022-11-08T06:32:18.504Z,11.70
2022-11-08T06:34:49.040Z,11.70
2022-11-08T06:37:16.652Z,11.70
2022-11-08T06:39:44.823Z,11.70
2022-11-08T06:42:11.830Z,11.70
2022-11-08T06:44:38.723Z,11.70
2022-11-08T06:47:05.732Z,11.70
2022-11-08T06:49:32.745Z,11.80
2022-11-08T06:51:59.705Z,11.80
2022-11-08T06:54:27.144Z,11.70
2022-11-08T06:56:55.789Z,11.70
2022-11-08T06:59:23.237Z,11.70
2022-11-08T07:01:50.253Z,11.80
2022-11-08T07:04:17.175Z,11.80
2022-11-08T07:06:44.206Z,11.80
2022-11-08T07:09:11.318Z,11.80
2022-11-08T07:11:38.261Z,11.80
2022-11-08T07:14:05.337Z,11.90
2022-11-08T07:16:32.393Z,11.80
2022-11-08T07:18:59.410Z,11.90
2022-11-08T07:21:26.431Z,11.90
2022-11-08T07:23:53.167Z,12.00
2022-11-08T07:26:20.142Z,12.00
2022-11-08T07:28:47.173Z,12.00
2022-11-08T07:31:13.877Z,12.10
2022-11-08T07:33:40.883Z,12.10
2022-11-08T07:36:08.354Z,12.20
2022-11-08T07:38:35.424Z,12.30
2022-11-08T07:41:02.644Z,12.30
2022-11-08T07:43:30.321Z,12.40
2022-11-08T07:46:00.042Z,12.40
2022-11-08T07:48:30.812Z,12.40
2022-11-08T07:50:57.697Z,12.40
2022-11-08T07:53:25.091Z,12.50
2022-11-08T07:55:52.209Z,12.60
2022-11-08T07:58:19.224Z,12.60
2022-11-08T08:00:45.958Z,12.60
2022-11-08T08:03:14.439Z,12.60
2022-11-08T08:05:43.918Z,12.70
2022-11-08T08:08:12.443Z,12.70
2022-11-08T08:10:40.397Z,12.70
2022-11-08T08:13:07.477Z,12.90
2022-11-08T08:15:34.376Z,12.90
2022-11-08T08:18:03.374Z,12.90
2022-11-08T08:20:31.609Z,12.90
2022-11-08T08:22:59.707Z,13.00
2022-11-08T08:25:28.030Z,13.00
2022-11-08T08:27:57.041Z,13.00
2022-11-08T08:30:24.775Z,13.00
2022-11-08T08:33:14.684Z,13.00
2022-11-08T08:35:40.596Z,13.10
2022-11-08T08:38:08.336Z,13.20
2022-11-08T08:40:35.016Z,13.30
2022-11-08T08:43:04.925Z,13.50
2022-11-08T08:45:33.260Z,13.60
2022-11-08T08:48:00.916Z,13.60
2022-11-08T08:50:30.278Z,13.60
2022-11-08T08:53:04.898Z,13.50
2022-11-08T08:55:32.741Z,13.60
2022-11-08T08:57:59.501Z,13.70
2022-11-08T09:03:13.882Z,13.80
2022-11-08T09:05:43.798Z,13.70
2022-11-08T09:08:11.276Z,13.70
2022-11-08T09:10:38.211Z,13.70
2022-11-08T09:13:05.309Z,13.70
2022-11-08T09:15:32.496Z,13.70
2022-11-08T09:17:59.331Z,13.70
2022-11-08T09:20:26.494Z,13.70
2022-11-08T09:22:53.336Z,13.60
2022-11-08T09:25:20.063Z,13.60
2022-11-08T09:27:47.048Z,13.70
2022-11-08T09:30:13.768Z,13.70
2022-11-08T09:35:27.541Z,13.80
2022-11-08T09:37:55.031Z,13.90
2022-11-08T09:40:32.931Z,14.00
2022-11-08T09:43:05.750Z,14.10
2022-11-08T09:45:37.529Z,14.30
2022-11-08T09:48:33.983Z,14.30
2022-11-08T09:51:07.337Z,14.50
2022-11-08T09:53:35.358Z,14.40
2022-11-08T09:56:27.917Z,14.40
2022-11-08T09:59:20.150Z,14.40
2022-11-08T10:01:49.044Z,14.50
2022-11-08T10:04:22.305Z,14.50
2022-11-08T10:07:18.556Z,14.60
2022-11-08T10:10:04.188Z,14.70
2022-11-08T10:13:01.219Z,14.90
2022-11-08T10:15:41.879Z,15.20
2022-11-08T10:18:22.471Z,15.40
2022-11-08T10:20:49.228Z,15.30
2022-11-08T10:23:43.300Z,15.20
2022-11-08T10:26:14.913Z,15.00
2022-11-08T10:28:50.049Z,15.00
2022-11-08T10:31:19.514Z,15.00
2022-11-08T10:33:52.029Z,15.10
2022-11-08T10:36:46.681Z,15.40
2022-11-08T10:39:22.635Z,15.40
2022-11-08T10:42:12.446Z,15.80
2022-11-08T10:44:41.048Z,17.60
2022-11-08T10:47:23.187Z,18.40
2022-11-08T10:49:50.322Z,18.90
2022-11-08T10:52:22.795Z,18.00
2022-11-08T10:54:51.780Z,17.50
2022-11-08T10:57:23.984Z,16.90
2022-11-08T10:59:51.580Z,16.70
2022-11-08T11:02:35.159Z,16.20
2022-11-08T11:05:22.028Z,15.70
2022-11-08T11:08:01.847Z,15.40
2022-11-08T11:10:40.391Z,15.30
2022-11-08T11:13:15.135Z,15.40
2022-11-08T11:15:49.899Z,15.50
2022-11-08T11:18:36.151Z,15.50
2022-11-08T11:21:17.031Z,16.20
2022-11-08T11:23:49.919Z,16.50
2022-11-08T11:26:32.604Z,16.40
2022-11-08T11:29:05.433Z,16.20
2022-11-08T11:31:38.262Z,16.10
2022-11-08T11:34:16.984Z,16.10
2022-11-08T11:36:55.638Z,16.30
2022-11-08T11:39:49.570Z,16.90
2022-11-08T11:42:47.173Z,16.80
2022-11-08T11:45:23.616Z,17.30
2022-11-08T11:47:56.914Z,17.70
2022-11-08T11:50:36.946Z,17.50
2022-11-08T11:53:22.855Z,17.60
2022-11-08T11:55:56.596Z,17.50
2022-11-08T11:58:50.579Z,17.80
2022-11-08T12:01:40.688Z,18.20
2022-11-08T12:04:44.737Z,18.10
2022-11-08T12:07:28.394Z,18.10
2022-11-08T12:10:12.559Z,18.00
2022-11-08T12:12:53.305Z,17.70
2022-11-08T12:15:25.879Z,17.70
2022-11-08T12:18:18.152Z,17.10
2022-11-08T12:21:09.184Z,17.00
2022-11-08T12:24:13.790Z,17.20
2022-11-08T12:27:06.688Z,17.40
2022-11-08T12:30:01.298Z,17.30
2022-11-08T12:32:36.783Z,17.20
2022-11-08T12:35:15.956Z,16.90
2022-11-08T12:37:57.735Z,16.90
2022-11-08T12:40:35.607Z,17.00
2022-11-08T12:43:27.135Z,17.10
2022-11-08T12:46:18.366Z,17.20
2022-11-08T12:49:29.454Z,16.80
2022-11-08T12:52:34.828Z,16.70
2022-11-08T12:55:03.673Z,16.50
2022-11-08T12:57:32.078Z,16.30
2022-11-08T13:00:17.277Z,16.20
2022-11-08T13:02:53.953Z,16.30
2022-11-08T13:05:23.783Z,16.70
2022-11-08T13:08:22.021Z,17.30
2022-11-08T13:11:04.146Z,17.40
2022-11-08T13:13:54.677Z,17.00
2022-11-08T13:16:33.963Z,17.30
2022-11-08T13:19:07.576Z,17.10
2022-11-08T13:21:39.553Z,16.80
2022-11-08T13:24:38.102Z,16.70
2022-11-08T13:26:57.132Z,16.60
2022-11-08T13:29:29.427Z,16.50
2022-11-08T13:32:18.261Z,16.50
2022-11-08T13:35:09.141Z,16.50
2022-11-08T13:37:55.462Z,16.60
2022-11-08T13:40:31.560Z,16.60
2022-11-08T13:43:22.033Z,16.60
2022-11-08T13:45:49.504Z,16.60
2022-11-08T13:48:26.185Z,16.60
2022-11-08T13:50:57.680Z,16.50
2022-11-08T13:53:46.519Z,16.50
2022-11-08T13:56:13.490Z,16.50
2022-11-08T13:58:44.879Z,16.50
2022-11-08T14:01:24.016Z,16.50
2022-11-08T14:03:50.986Z,16.50
2022-11-08T14:06:25.189Z,16.50
2022-11-08T14:09:03.314Z,16.40
2022-11-08T14:11:55.704Z,16.50
2022-11-08T14:14:41.452Z,16.50
2022-11-08T14:17:30.349Z,16.40
2022-11-08T14:20:16.535Z,16.50
2022-11-08T14:22:48.908Z,16.40
2022-11-08T14:25:33.893Z,16.40
2022-11-08T14:28:01.102Z,16.40
2022-11-08T14:30:27.840Z,16.40
2022-11-08T14:33:21.738Z,16.40
2022-11-08T14:35:56.638Z,16.30
2022-11-08T14:38:24.097Z,16.20
2022-11-08T14:40:59.900Z,16.20
2022-11-08T14:43:27.395Z,16.20
2022-11-08T14:45:54.759Z,16.20
2022-11-08T14:48:28.585Z,16.20
2022-11-08T14:51:00.310Z,16.20
2022-11-08T14:53:32.882Z,16.10
2022-11-08T14:56:19.120Z,16.00
2022-11-08T14:58:47.321Z,16.10
2022-11-08T15:01:17.675Z,16.20
2022-11-08T15:03:51.852Z,16.20
2022-11-08T15:06:18.750Z,16.20
2022-11-08T15:08:52.594Z,16.30
2022-11-08T15:11:35.156Z,16.30
2022-11-08T15:14:07.875Z,16.30
2022-11-08T15:16:44.071Z,16.30
2022-11-08T15:19:39.985Z,16.20
2022-11-08T15:22:30.306Z,16.20
2022-11-08T15:25:19.940Z,16.00
2022-11-08T15:27:51.312Z,15.90
2022-11-08T15:30:20.481Z,15.90
2022-11-08T15:32:48.317Z,15.80
2022-11-08T15:35:47.521Z,15.80
2022-11-08T15:38:33.323Z,15.80
2022-11-08T15:41:03.647Z,15.80
2022-11-08T15:43:33.558Z,15.70
2022-11-08T15:46:02.325Z,15.70
2022-11-08T15:48:29.444Z,15.60
2022-11-08T15:50:56.847Z,15.60
2022-11-08T15:53:25.170Z,15.60
2022-11-08T15:56:05.235Z,15.60
2022-11-08T15:58:36.279Z,15.50
2022-11-08T16:01:04.245Z,15.50
2022-11-08T16:03:31.469Z,15.50
2022-11-08T16:05:58.451Z,15.50
2022-11-08T16:08:25.373Z,15.40
2022-11-08T16:11:00.155Z,15.40
2022-11-08T16:13:30.125Z,15.40
2022-11-08T16:15:58.625Z,15.30
2022-11-08T16:18:26.056Z,15.40
2022-11-08T16:20:53.434Z,15.40
2022-11-08T16:23:20.152Z,15.40
2022-11-08T16:25:51.503Z,15.40
2022-11-08T16:28:21.509Z,15.40
2022-11-08T16:30:48.555Z,15.30
2022-11-08T16:33:26.842Z,15.30
2022-11-08T16:35:59.362Z,15.30
2022-11-08T16:38:32.944Z,15.30
2022-11-08T16:40:59.773Z,15.30
2022-11-08T16:43:27.063Z,15.30
2022-11-08T16:46:10.179Z,15.30
2022-11-08T16:48:39.129Z,15.30
2022-11-08T16:51:12.798Z,15.30
2022-11-08T16:53:39.588Z,15.40
2022-11-08T16:56:06.711Z,15.40
2022-11-08T16:58:33.679Z,15.30
2022-11-08T17:01:00.525Z,15.30
2022-11-08T17:03:29.687Z,15.20
2022-11-08T17:05:57.873Z,15.30
2022-11-08T17:08:25.061Z,15.30
2022-11-08T17:10:52.785Z,15.20
2022-11-08T17:13:20.967Z,15.30
2022-11-08T17:15:49.405Z,15.20
2022-11-08T17:18:19.224Z,15.20
2022-11-08T17:20:46.303Z,15.30
2022-11-08T17:23:13.705Z,15.20
2022-11-08T17:25:42.946Z,15.20
2022-11-08T17:28:11.500Z,15.20
2022-11-08T17:30:43.924Z,15.10
2022-11-08T17:33:12.684Z,15.20
2022-11-08T17:35:43.926Z,15.20
2022-11-08T17:38:12.574Z,15.20
2022-11-08T17:40:42.073Z,15.10
2022-11-08T17:43:08.858Z,15.10
2022-11-08T17:45:35.860Z,15.10
2022-11-08T17:48:02.911Z,15.10
2022-11-08T17:50:29.957Z,15.20
2022-11-08T17:52:56.616Z,15.20
2022-11-08T17:55:23.631Z,15.30
2022-11-08T17:57:50.827Z,15.30
2022-11-08T18:00:17.680Z,15.30
2022-11-08T18:02:45.568Z,15.30
2022-11-08T18:05:12.349Z,15.30
2022-11-08T18:07:39.962Z,15.30
2022-11-08T18:10:07.131Z,15.30
2022-11-08T18:12:34.211Z,15.40
2022-11-08T18:15:01.259Z,15.40
2022-11-08T18:17:28.297Z,15.40
2022-11-08T18:19:55.351Z,15.40
2022-11-08T18:22:22.471Z,15.50
2022-11-08T18:24:50.249Z,15.50
2022-11-08T18:27:17.331Z,15.60
2022-11-08T18:29:44.440Z,15.60
2022-11-08T18:32:11.563Z,15.50
2022-11-08T18:34:38.441Z,15.60
2022-11-08T18:37:05.097Z,15.50
2022-11-08T18:39:32.196Z,15.50
2022-11-08T18:41:59.234Z,15.50
2022-11-08T18:44:26.245Z,15.50
2022-11-08T18:46:53.281Z,15.60
2022-11-08T18:49:20.413Z,15.60
2022-11-08T18:51:51.965Z,15.60
2022-11-08T18:54:19.465Z,15.50
2022-11-08T18:56:46.452Z,15.50
2022-11-08T18:59:14.112Z,15.50
2022-11-08T19:01:40.990Z,15.50
2022-11-08T19:04:08.058Z,15.40
2022-11-08T19:06:35.097Z,15.40
2022-11-08T19:09:02.400Z,15.40
2022-11-08T19:11:30.486Z,15.40
2022-11-08T19:13:58.707Z,15.40
2022-11-08T19:16:25.847Z,15.40
2022-11-08T19:18:52.811Z,15.40
2022-11-08T19:21:25.251Z,15.40
2022-11-08T19:23:52.952Z,15.40
2022-11-08T19:26:22.713Z,15.30
2022-11-08T19:28:50.106Z,15.30
2022-11-08T19:31:19.578Z,15.40
2022-11-08T19:33:50.475Z,15.40
2022-11-08T19:36:19.939Z,15.30
2022-11-08T19:38:47.073Z,15.40
2022-11-08T19:41:19.812Z,15.30
2022-11-08T19:43:47.543Z,15.40
2022-11-08T19:46:19.658Z,15.40
2022-11-08T19:48:47.881Z,15.30
2022-11-08T19:51:20.832Z,15.30
2022-11-08T19:53:48.918Z,15.20
2022-11-08T19:56:17.824Z,15.20
2022-11-08T19:58:45.046Z,15.20
2022-11-08T20:01:15.930Z,15.20
2022-11-08T20:03:43.221Z,15.10
2022-11-08T20:06:11.732Z,15.20
2022-11-08T20:08:39.261Z,15.10
2022-11-08T20:11:15.007Z,15.20
2022-11-08T20:13:42.467Z,15.20
2022-11-08T20:16:15.006Z,15.20
2022-11-08T20:18:42.548Z,15.20
2022-11-08T20:21:11.087Z,15.10
2022-11-08T20:23:38.268Z,15.10
2022-11-08T20:26:07.488Z,15.10
2022-11-08T20:28:36.399Z,15.00
2022-11-08T20:31:11.213Z,15.10
2022-11-08T20:33:39.466Z,15.10
2022-11-08T20:36:08.678Z,15.10
2022-11-08T20:38:36.912Z,15.00
2022-11-08T20:41:06.247Z,15.00
2022-11-08T20:43:33.708Z,15.00
2022-11-08T20:46:19.523Z,14.90
2022-11-08T20:48:50.847Z,15.00
2022-11-08T20:51:19.694Z,14.90
2022-11-08T20:53:47.708Z,14.90
2022-11-08T20:56:19.737Z,14.90
2022-11-08T20:58:48.316Z,14.80
2022-11-08T21:01:17.908Z,14.80
2022-11-08T21:03:46.166Z,14.70
2022-11-08T21:06:15.584Z,14.80
2022-11-08T21:09:00.654Z,14.80
2022-11-08T21:11:30.176Z,14.80
2022-11-08T21:13:57.133Z,14.80
2022-11-08T21:16:42.308Z,14.70
2022-11-08T21:19:10.812Z,14.70
2022-11-08T21:21:37.824Z,14.70
2022-11-08T21:24:04.988Z,14.60
2022-11-08T21:26:36.265Z,14.60
2022-11-08T21:29:04.641Z,14.60
2022-11-08T21:31:31.798Z,14.60
2022-11-08T21:33:59.161Z,14.60
2022-11-08T21:36:26.930Z,14.60
2022-11-08T21:38:54.115Z,14.60
2022-11-08T21:41:21.279Z,14.60
2022-11-08T21:43:48.397Z,14.60
2022-11-08T21:46:23.668Z,14.70
2022-11-08T21:48:55.497Z,14.70
2022-11-08T21:51:23.346Z,14.70
2022-11-08T21:53:58.006Z,14.70
2022-11-08T21:56:28.996Z,14.60
2022-11-08T21:58:55.890Z,14.70
2022-11-08T22:01:28.617Z,14.60
2022-11-08T22:03:56.807Z,14.60
2022-11-08T22:06:23.957Z,14.70
2022-11-08T22:08:50.814Z,14.70
2022-11-08T22:11:18.016Z,14.70
2022-11-08T22:13:44.840Z,14.60
2022-11-08T22:16:11.803Z,14.60
2022-11-08T22:21:38.597Z,14.50
2022-11-08T22:24:18.221Z,14.40
2022-11-08T22:26:45.091Z,14.40
2022-11-08T22:29:12.438Z,14.30
2022-11-08T22:31:39.680Z,14.30
2022-11-08T22:34:10.774Z,14.30
2022-11-08T22:36:44.518Z,14.40
2022-11-08T22:39:14.023Z,14.40
2022-11-08T22:41:42.092Z,14.40
2022-11-08T22:44:12.301Z,14.50
2022-11-08T22:46:41.218Z,14.50
2022-11-08T22:49:08.977Z,14.60
2022-11-08T22:51:35.988Z,14.60
2022-11-08T22:54:03.251Z,14.60
2022-11-08T22:56:30.120Z,14.50
2022-11-08T22:58:57.141Z,14.60
2022-11-08T23:01:25.402Z,14.60
2022-11-08T23:03:52.461Z,14.60
2022-11-08T23:06:19.692Z,14.50
2022-11-08T23:08:47.224Z,14.60
2022-11-08T23:11:33.265Z,14.60
2022-11-08T23:14:19.334Z,14.70
2022-11-08T23:16:46.922Z,14.70
2022-11-08T23:19:38.795Z,14.70
2022-11-08T23:22:27.806Z,14.70
2022-11-08T23:24:55.796Z,14.70
2022-11-08T23:27:41.698Z,14.70
2022-11-08T23:30:30.712Z,14.70
2022-11-08T23:32:57.584Z,14.70
2022-11-08T23:35:24.763Z,14.70
2022-11-08T23:37:51.588Z,14.70
2022-11-08T23:40:38.302Z,14.70
2022-11-08T23:43:35.621Z,14.70
2022-11-08T23:46:10.665Z,14.70
2022-11-08T23:48:39.534Z,14.60
2022-11-08T23:51:07.371Z,14.70
2022-11-08T23:53:36.898Z,14.60
2022-11-08T23:56:04.605Z,14.60
2022-11-08T23:58:31.978Z,14.50
